createdAt,value
2018-03-20T00:01:33.145Z,8.80
2018-03-20T00:04:01.423Z,8.83
2018-03-20T00:06:29.692Z,8.93
2018-03-20T00:08:58.379Z,10.10
2018-03-20T00:11:26.668Z,8.37
2018-03-20T00:13:54.970Z,9.53
2018-03-20T00:16:23.225Z,11.00
2018-03-20T00:18:51.540Z,9.43
2018-03-20T00:21:20.578Z,10.47
2018-03-20T00:23:48.846Z,10.03
2018-03-20T00:26:17.127Z,12.93
2018-03-20T00:28:45.363Z,10.00
2018-03-20T00:31:13.710Z,10.13
2018-03-20T00:33:41.959Z,11.40
2018-03-20T00:36:10.290Z,10.30
2018-03-20T00:38:38.503Z,10.33
2018-03-20T00:41:06.790Z,9.38
2018-03-20T00:43:35.088Z,10.97
2018-03-20T00:46:04.974Z,9.33
2018-03-20T00:48:33.201Z,10.33
2018-03-20T00:51:01.500Z,10.17
2018-03-20T00:53:30.541Z,9.03
2018-03-20T00:55:58.804Z,10.23
2018-03-20T00:58:27.074Z,9.40
2018-03-20T01:00:55.338Z,10.00
2018-03-20T01:03:23.576Z,8.87
2018-03-20T01:05:52.648Z,9.83
2018-03-20T01:08:20.890Z,10.40
2018-03-20T01:10:49.169Z,8.23
2018-03-20T01:13:17.562Z,8.80
2018-03-20T01:15:45.835Z,7.57
2018-03-20T01:18:14.072Z,9.60
2018-03-20T01:20:42.544Z,7.83
2018-03-20T01:23:10.720Z,8.83
2018-03-20T01:25:38.985Z,8.60
2018-03-20T01:28:08.018Z,7.03
2018-03-20T01:30:36.293Z,8.90
2018-03-20T01:33:04.554Z,6.90
2018-03-20T01:35:32.811Z,8.00
2018-03-20T01:38:01.077Z,6.90
2018-03-20T01:40:29.361Z,8.27
2018-03-20T01:42:58.426Z,7.93
2018-03-20T01:45:26.673Z,6.50
2018-03-20T01:47:54.979Z,8.33
2018-03-20T01:50:23.247Z,7.60
2018-03-20T01:53:03.323Z,8.43
2018-03-20T01:55:32.390Z,7.20
2018-03-20T01:58:01.475Z,9.20
2018-03-20T02:00:29.733Z,6.33
2018-03-20T02:02:58.027Z,7.20
2018-03-20T02:05:26.295Z,6.20
2018-03-20T02:07:54.582Z,7.80
2018-03-20T02:10:22.878Z,6.37
2018-03-20T02:12:51.114Z,7.10
2018-03-20T02:15:19.386Z,7.33
2018-03-20T02:17:47.698Z,6.25
2018-03-20T02:20:16.490Z,8.05
2018-03-20T02:22:46.273Z,5.60
2018-03-20T02:25:14.535Z,8.50
2018-03-20T02:27:42.774Z,6.37
2018-03-20T02:30:11.846Z,7.13
2018-03-20T02:32:40.077Z,7.40
2018-03-20T02:35:08.321Z,7.47
2018-03-20T02:37:36.756Z,9.57
2018-03-20T02:40:05.023Z,8.67
2018-03-20T02:42:33.313Z,9.40
2018-03-20T02:45:01.615Z,8.20
2018-03-20T02:47:31.349Z,8.10
2018-03-20T02:49:59.700Z,9.30
2018-03-20T02:52:29.493Z,8.53
2018-03-20T02:54:57.747Z,9.40
2018-03-20T02:57:26.002Z,7.50
2018-03-20T02:59:54.274Z,8.80
2018-03-20T03:02:22.521Z,8.07
2018-03-20T03:04:52.260Z,8.03
2018-03-20T03:07:20.521Z,7.83
2018-03-20T03:09:48.868Z,7.72
2018-03-20T03:12:17.128Z,8.83
2018-03-20T03:14:45.420Z,6.77
2018-03-20T03:17:15.193Z,7.30
2018-03-20T03:19:43.493Z,8.27
2018-03-20T03:22:12.698Z,9.10
2018-03-20T03:24:43.953Z,8.00
2018-03-20T03:27:12.171Z,8.67
2018-03-20T03:29:40.465Z,7.93
2018-03-20T03:32:08.754Z,8.30
2018-03-20T03:34:37.018Z,9.77
2018-03-20T03:37:05.286Z,8.17
2018-03-20T03:39:34.000Z,9.13
2018-03-20T03:42:02.274Z,8.63
2018-03-20T03:44:30.504Z,11.33
2018-03-20T03:46:58.742Z,9.83
2018-03-20T03:49:27.032Z,8.80
2018-03-20T03:51:56.070Z,9.73
2018-03-20T03:54:24.334Z,8.53
2018-03-20T03:56:52.599Z,9.13
2018-03-20T03:59:21.623Z,7.27
2018-03-20T04:01:49.881Z,8.37
2018-03-20T04:04:18.210Z,7.33
2018-03-20T04:06:48.014Z,7.57
2018-03-20T04:09:16.228Z,7.43
2018-03-20T04:11:45.298Z,7.30
2018-03-20T04:14:15.065Z,7.40
2018-03-20T04:16:43.345Z,7.40
2018-03-20T04:19:11.612Z,7.70
2018-03-20T04:21:39.878Z,7.03
2018-03-20T04:24:08.122Z,7.50
2018-03-20T04:26:36.393Z,6.30
2018-03-20T04:29:04.659Z,5.50
2018-03-20T04:31:34.455Z,7.30
2018-03-20T04:34:02.733Z,5.90
2018-03-20T04:36:31.009Z,7.47
2018-03-20T04:38:59.239Z,6.20
2018-03-20T04:41:27.535Z,6.40
2018-03-20T04:43:55.820Z,7.13
2018-03-20T04:46:24.046Z,6.13
2018-03-20T04:48:52.983Z,7.27
2018-03-20T04:51:21.245Z,5.87
2018-03-20T04:53:49.519Z,7.63
2018-03-20T04:56:17.814Z,7.13
2018-03-20T04:58:46.064Z,6.63
2018-03-20T05:01:14.372Z,7.30
2018-03-20T05:03:42.670Z,7.47
2018-03-20T05:06:10.991Z,7.47
2018-03-20T05:08:39.286Z,6.33
2018-03-20T05:11:08.333Z,7.67
2018-03-20T05:13:36.560Z,6.37
2018-03-20T05:16:04.874Z,6.43
2018-03-20T05:18:33.135Z,7.13
2018-03-20T05:21:04.887Z,5.70
2018-03-20T05:23:36.759Z,6.67
2018-03-20T05:26:05.046Z,5.90
2018-03-20T05:28:33.298Z,6.87
2018-03-20T05:31:01.536Z,6.32
2018-03-20T05:33:30.950Z,6.87
2018-03-20T05:35:59.212Z,6.47
2018-03-20T05:38:27.489Z,5.83
2018-03-20T05:40:56.554Z,6.60
2018-03-20T05:43:26.496Z,6.10
2018-03-20T05:45:55.502Z,7.50
2018-03-20T05:48:29.495Z,6.03
2018-03-20T18:06:02.011Z,4.80
2018-03-20T18:08:30.386Z,4.73
2018-03-20T18:10:58.668Z,4.72
2018-03-20T18:13:27.782Z,4.70
2018-03-20T18:15:56.836Z,4.40
2018-03-20T18:18:25.098Z,4.10
2018-03-20T18:20:53.473Z,3.90
2018-03-20T18:23:21.781Z,4.20
2018-03-20T18:25:50.022Z,3.92
2018-03-20T18:28:18.344Z,5.22
2018-03-20T18:30:46.601Z,5.30
2018-03-20T18:33:14.869Z,3.93
2018-03-20T18:35:43.194Z,3.87
2018-03-20T18:38:12.212Z,4.40
2018-03-20T18:40:40.546Z,5.50
2018-03-20T18:43:08.849Z,6.73
2018-03-20T18:45:38.831Z,6.40
2018-03-20T18:48:07.874Z,8.23
2018-03-20T18:50:36.142Z,8.40
2018-03-20T18:53:05.110Z,8.03
2018-03-20T18:55:34.275Z,8.23
2018-03-20T18:58:03.652Z,8.07
2018-03-20T19:00:31.903Z,7.53
2018-03-20T19:03:00.248Z,8.20
2018-03-20T19:05:28.512Z,7.37
2018-03-20T19:07:57.649Z,6.80
2018-03-20T19:10:26.716Z,6.67
2018-03-20T19:12:54.954Z,6.20
2018-03-20T19:15:23.222Z,7.17
2018-03-20T19:17:55.024Z,6.47
2018-03-20T19:20:23.343Z,7.07
2018-03-20T19:22:51.628Z,6.37
2018-03-20T19:25:19.899Z,6.60
2018-03-20T19:27:48.193Z,6.53
2018-03-20T19:30:16.494Z,7.07
2018-03-20T19:32:46.514Z,5.50
2018-03-20T19:35:14.829Z,6.67
2018-03-20T19:37:43.902Z,5.60
2018-03-20T19:40:12.230Z,7.33
2018-03-20T19:42:40.545Z,5.63
2018-03-20T19:45:08.859Z,6.20
2018-03-20T19:47:38.781Z,5.87
2018-03-20T19:50:07.105Z,6.10
2018-03-20T19:52:36.143Z,5.60
2018-03-20T19:55:05.761Z,5.73
2018-03-20T19:57:34.815Z,6.30
2018-03-20T20:00:04.916Z,6.07
2018-03-20T20:02:34.055Z,6.23
2018-03-20T20:05:03.385Z,7.27
2018-03-20T20:07:31.694Z,6.40
2018-03-20T20:10:02.189Z,6.40
2018-03-20T20:12:31.270Z,6.40
2018-03-20T20:14:59.589Z,7.07
2018-03-20T20:17:28.089Z,7.50
2018-03-20T20:19:58.313Z,6.62
2018-03-20T20:22:26.648Z,9.83
2018-03-20T20:24:55.010Z,10.70
2018-03-20T20:27:23.578Z,10.10
2018-03-20T20:29:52.833Z,7.67
2018-03-20T20:32:21.183Z,8.40
2018-03-20T20:34:49.486Z,7.90
2018-03-20T20:37:19.458Z,6.60
2018-03-20T20:39:47.782Z,5.83
2018-03-20T20:42:16.161Z,5.80
2018-03-20T20:44:44.444Z,6.00
2018-03-20T20:47:12.823Z,5.43
2018-03-20T20:49:44.141Z,5.80
2018-03-20T20:52:12.463Z,5.57
2018-03-20T20:54:41.716Z,4.60
2018-03-20T20:57:10.013Z,4.90
2018-03-20T20:59:38.473Z,4.63
2018-03-20T21:02:08.136Z,4.90
2018-03-20T21:04:38.055Z,5.40
2018-03-20T21:07:06.362Z,4.97
2018-03-20T21:09:34.673Z,9.93
2018-03-20T21:12:03.073Z,8.97
2018-03-20T21:14:32.148Z,6.63
2018-03-20T21:17:00.398Z,6.10
2018-03-20T21:19:28.725Z,5.07
2018-03-20T21:21:57.755Z,4.70
2018-03-20T21:24:26.064Z,4.37
2018-03-20T21:26:54.390Z,4.20
2018-03-20T21:29:22.742Z,5.33
2018-03-20T21:31:51.785Z,6.47
2018-03-20T21:34:20.096Z,5.07
2018-03-20T21:36:48.385Z,4.87
2018-03-20T21:39:18.194Z,5.23
2018-03-20T21:41:46.512Z,3.97
2018-03-20T21:44:14.803Z,4.40
2018-03-20T21:46:43.169Z,5.37
2018-03-20T21:49:11.461Z,6.47
2018-03-20T21:51:39.678Z,5.18
2018-03-20T21:54:09.059Z,4.77
2018-03-20T21:56:37.357Z,4.90
2018-03-20T21:59:05.589Z,4.70
2018-03-20T22:01:33.873Z,5.10
2018-03-20T22:04:02.181Z,4.93
2018-03-20T22:06:31.976Z,4.57
2018-03-20T22:09:00.262Z,4.30
2018-03-20T22:11:30.080Z,4.80
2018-03-20T22:13:58.383Z,4.73
2018-03-20T22:16:27.786Z,4.27
2018-03-20T22:18:56.065Z,4.67
2018-03-20T22:21:24.364Z,5.07
2018-03-20T22:23:53.789Z,4.43
2018-03-20T22:26:22.092Z,4.50
2018-03-20T22:28:50.356Z,5.07
2018-03-20T22:31:18.784Z,4.90
2018-03-20T22:33:47.075Z,4.80
2018-03-20T22:36:15.493Z,5.70
2018-03-20T22:38:43.725Z,5.20
2018-03-20T22:41:11.997Z,5.83
2018-03-20T22:43:40.520Z,6.07
2018-03-20T22:46:08.822Z,4.63
2018-03-20T22:48:37.880Z,5.40
2018-03-20T22:51:06.163Z,5.17
2018-03-20T22:53:34.445Z,4.93
2018-03-20T22:56:02.727Z,4.50
2018-03-20T22:58:31.005Z,5.70
2018-03-20T23:00:59.258Z,4.57
2018-03-20T23:03:27.550Z,5.50
2018-03-20T23:05:57.074Z,4.90
2018-03-20T23:08:25.358Z,5.17
2018-03-20T23:10:54.383Z,5.00
2018-03-20T23:13:22.615Z,7.03
2018-03-20T23:15:51.667Z,7.47
2018-03-20T23:18:19.910Z,6.03
2018-03-20T23:20:49.033Z,4.63
2018-03-20T23:23:17.306Z,4.97
2018-03-20T23:25:45.629Z,5.17
2018-03-20T23:28:13.995Z,5.27
2018-03-20T23:30:42.392Z,5.53
2018-03-20T23:33:10.654Z,5.10
2018-03-20T23:35:38.959Z,5.57
2018-03-20T23:38:07.283Z,5.47
2018-03-20T23:40:35.543Z,5.20
2018-03-20T23:43:03.782Z,6.10
2018-03-20T23:45:32.087Z,5.80
2018-03-20T23:48:00.370Z,6.00
2018-03-20T23:50:28.669Z,6.30
2018-03-20T23:52:57.060Z,6.53
2018-03-20T23:55:25.324Z,8.17
2018-03-20T23:57:53.702Z,6.63
